createdAt,value
2023-03-05T00:00:17.059Z,66.58
2023-03-05T00:01:17.071Z,65.95
2023-03-05T00:02:17.069Z,65.55
2023-03-05T00:03:17.049Z,65.23
2023-03-05T00:04:16.997Z,65.13
2023-03-05T00:05:17.022Z,64.83
2023-03-05T00:06:17.131Z,64.51
2023-03-05T00:07:17.021Z,64.11
2023-03-05T00:08:17.113Z,64.00
2023-03-05T00:09:16.947Z,63.69
2023-03-05T00:10:16.943Z,63.69
2023-03-05T00:11:16.929Z,63.39
2023-03-05T00:12:16.894Z,62.87
2023-03-05T00:13:16.907Z,62.87
2023-03-05T00:14:16.902Z,62.56
2023-03-05T00:15:16.865Z,62.35
2023-03-05T00:16:16.946Z,62.15
2023-03-05T00:17:16.863Z,61.94
2023-03-05T00:18:16.825Z,61.84
2023-03-05T00:19:16.824Z,61.74
2023-03-05T00:20:16.802Z,61.63
2023-03-05T00:21:16.797Z,61.43
2023-03-05T00:22:16.795Z,61.84
2023-03-05T00:23:16.781Z,61.66
2023-03-05T00:24:16.814Z,61.66
2023-03-05T00:25:16.750Z,61.56
2023-03-05T00:26:16.731Z,61.66
2023-03-05T00:27:16.790Z,61.56
2023-03-05T00:28:16.760Z,61.46
2023-03-05T00:29:16.713Z,61.15
2023-03-05T00:30:16.697Z,61.25
2023-03-05T00:31:16.723Z,60.91
2023-03-05T00:32:16.702Z,60.94
2023-03-05T00:33:16.673Z,60.63
2023-03-05T00:34:16.676Z,61.07
2023-03-05T00:35:16.634Z,61.69
2023-03-05T00:36:16.632Z,61.69
2023-03-05T00:37:16.614Z,61.35
2023-03-05T00:38:16.604Z,60.94
2023-03-05T00:39:16.606Z,61.18
2023-03-05T00:40:16.636Z,61.25
2023-03-05T00:41:16.576Z,61.05
2023-03-05T00:42:16.586Z,61.05
2023-03-05T00:43:16.564Z,60.84
2023-03-05T00:44:16.540Z,60.63
2023-03-05T00:45:16.519Z,60.63
2023-03-05T00:46:16.569Z,60.53
2023-03-05T00:47:16.500Z,60.40
2023-03-05T00:48:16.493Z,60.12
2023-03-05T00:49:16.527Z,60.94
2023-03-05T00:50:16.464Z,60.74
2023-03-05T00:51:16.445Z,60.74
2023-03-05T00:52:16.556Z,60.84
2023-03-05T00:53:16.427Z,60.74
2023-03-05T00:54:16.425Z,61.15
2023-03-05T00:55:16.411Z,61.15
2023-03-05T00:56:16.453Z,61.15
2023-03-05T00:57:16.384Z,61.69
2023-03-05T00:58:16.383Z,61.90
2023-03-05T00:59:16.360Z,61.80
2023-03-05T01:00:16.361Z,62.21
2023-03-05T01:01:16.457Z,62.10
2023-03-05T01:02:16.320Z,62.21
2023-03-05T01:03:16.310Z,62.41
2023-03-05T01:04:16.315Z,62.72
2023-03-05T01:05:16.330Z,62.72
2023-03-05T01:06:16.266Z,62.72
2023-03-05T01:07:16.251Z,62.41
2023-03-05T01:08:16.231Z,62.72
2023-03-05T01:09:16.236Z,62.52
2023-03-05T01:10:16.227Z,62.62
2023-03-05T01:11:16.233Z,62.38
2023-03-05T01:12:16.185Z,62.28
2023-03-05T01:13:16.179Z,61.98
2023-03-05T01:14:16.179Z,62.07
2023-03-05T01:15:16.196Z,61.94
2023-03-05T01:16:16.243Z,61.98
2023-03-05T01:17:16.157Z,62.07
2023-03-05T01:18:16.109Z,62.38
2023-03-05T01:19:16.097Z,62.18
2023-03-05T01:20:16.114Z,62.07
2023-03-05T01:21:16.176Z,61.87
2023-03-05T01:22:16.083Z,62.38
2023-03-05T01:23:16.058Z,62.38
2023-03-05T01:24:16.036Z,62.21
2023-03-05T01:25:16.046Z,62.00
2023-03-05T01:26:16.109Z,62.31
2023-03-05T01:27:16.033Z,62.21
2023-03-05T01:28:16.013Z,62.41
2023-03-05T01:29:15.994Z,62.18
2023-03-05T01:30:15.961Z,62.00
2023-03-05T01:31:16.021Z,62.00
2023-03-05T01:32:15.959Z,62.10
2023-03-05T01:33:15.963Z,62.21
2023-03-05T01:34:15.917Z,62.82
2023-03-05T01:35:15.910Z,63.24
2023-03-05T01:36:15.965Z,63.57
2023-03-05T01:37:15.893Z,63.54
2023-03-05T01:38:15.872Z,63.45
2023-03-05T01:39:15.884Z,63.47
2023-03-05T01:40:15.951Z,63.45
2023-03-05T01:41:15.866Z,63.45
2023-03-05T01:42:15.824Z,63.34
2023-03-05T01:43:15.817Z,63.34
2023-03-05T01:44:15.798Z,63.34
2023-03-05T01:45:15.808Z,63.27
2023-03-05T01:46:15.844Z,63.27
2023-03-05T01:47:15.772Z,63.57
2023-03-05T01:48:15.754Z,63.27
2023-03-05T01:49:15.759Z,63.27
2023-03-05T01:50:15.843Z,63.37
2023-03-05T01:51:15.743Z,63.24
2023-03-05T01:52:15.713Z,63.13
2023-03-05T01:53:15.722Z,63.03
2023-03-05T01:54:15.794Z,62.72
2023-03-05T01:55:15.685Z,62.93
2023-03-05T01:56:15.664Z,62.82
2023-03-05T01:57:15.691Z,63.03
2023-03-05T01:58:15.633Z,62.93
2023-03-05T01:59:15.627Z,63.13
2023-03-05T02:00:15.640Z,62.82
2023-03-05T02:01:15.666Z,62.62
2023-03-05T02:02:15.622Z,62.72
2023-03-05T02:03:15.592Z,62.72
2023-03-05T02:04:15.582Z,62.82
2023-03-05T02:05:15.560Z,62.82
2023-03-05T02:06:15.541Z,62.90
2023-03-05T02:07:15.729Z,62.90
2023-03-05T02:08:15.548Z,62.70
2023-03-05T02:09:15.538Z,62.70
2023-03-05T02:10:15.492Z,62.59
2023-03-05T02:11:15.490Z,62.79
2023-03-05T02:12:15.470Z,62.90
2023-03-05T02:13:15.471Z,62.79
2023-03-05T02:14:15.473Z,62.93
2023-03-05T02:15:15.441Z,62.93
2023-03-05T02:16:15.459Z,63.13
2023-03-05T02:17:15.421Z,63.13
2023-03-05T02:18:15.403Z,63.13
2023-03-05T02:19:15.400Z,63.13
2023-03-05T02:20:15.393Z,63.13
2023-03-05T02:21:15.375Z,63.24
2023-03-05T02:22:15.352Z,63.24
2023-03-05T02:23:15.364Z,63.24
2023-03-05T02:24:15.335Z,63.24
2023-03-05T02:25:15.329Z,63.24
2023-03-05T02:26:15.326Z,63.75
2023-03-05T02:27:15.314Z,63.54
2023-03-05T02:28:15.284Z,63.85
2023-03-05T02:29:15.300Z,63.65
2023-03-05T02:30:15.292Z,64.06
2023-03-05T02:31:15.271Z,64.06
2023-03-05T02:32:15.326Z,64.06
2023-03-05T02:33:15.255Z,64.06
2023-03-05T02:34:15.222Z,63.99
2023-03-05T02:35:15.212Z,64.19
2023-03-05T02:36:15.202Z,64.40
2023-03-05T02:37:15.226Z,64.29
2023-03-05T02:38:15.177Z,64.09
2023-03-05T02:39:15.175Z,63.99
2023-03-05T02:40:15.154Z,64.29
2023-03-05T02:41:15.152Z,64.61
2023-03-05T02:42:15.131Z,64.50
2023-03-05T02:43:15.300Z,64.19
2023-03-05T02:44:15.121Z,64.09
2023-03-05T02:45:15.113Z,63.96
2023-03-05T02:46:15.223Z,63.96
2023-03-05T02:47:15.098Z,64.06
2023-03-05T02:48:15.243Z,64.02
2023-03-05T02:49:15.072Z,64.95
2023-03-05T02:50:15.044Z,65.05
2023-03-05T02:51:15.056Z,65.18
2023-03-05T02:52:15.023Z,65.15
2023-03-05T02:53:15.219Z,65.39
2023-03-05T02:54:15.020Z,65.80
2023-03-05T02:55:14.991Z,65.70
2023-03-05T02:56:14.981Z,65.80
2023-03-05T02:57:14.964Z,65.67
2023-03-05T02:58:14.970Z,65.80
2023-03-05T02:59:14.944Z,65.70
2023-03-05T03:00:15.001Z,66.11
2023-03-05T03:01:14.954Z,66.01
2023-03-05T03:02:14.903Z,65.88
2023-03-05T03:03:14.961Z,65.77
2023-03-05T03:04:14.884Z,65.88
2023-03-05T03:05:14.874Z,65.67
2023-03-05T03:06:14.879Z,65.36
2023-03-05T03:07:14.852Z,65.25
2023-03-05T03:08:14.842Z,65.70
2023-03-05T03:09:14.836Z,66.01
2023-03-05T03:10:14.819Z,65.70
2023-03-05T03:11:14.835Z,65.59
2023-03-05T03:12:14.806Z,65.49
2023-03-05T03:13:14.789Z,65.39
2023-03-05T03:14:14.813Z,65.46
2023-03-05T03:15:14.772Z,65.15
2023-03-05T03:16:14.754Z,65.05
2023-03-05T03:17:14.782Z,65.05
2023-03-05T03:18:14.728Z,64.98
2023-03-05T03:19:14.734Z,65.28
2023-03-05T03:20:14.714Z,65.15
2023-03-05T03:21:14.703Z,64.87
2023-03-05T03:22:14.703Z,65.11
2023-03-05T03:23:14.701Z,65.52
2023-03-05T03:24:14.671Z,65.73
2023-03-05T03:25:14.660Z,65.45
2023-03-05T03:26:14.692Z,64.93
2023-03-05T03:27:14.637Z,65.03
2023-03-05T03:28:14.624Z,64.65
2023-03-05T03:29:14.614Z,63.90
2023-03-05T03:30:14.608Z,63.59
2023-03-05T03:31:14.678Z,63.49
2023-03-05T03:32:14.600Z,62.79
2023-03-05T03:33:14.586Z,63.10
2023-03-05T03:34:14.555Z,62.87
2023-03-05T03:35:14.616Z,62.90
2023-03-05T03:36:14.550Z,62.59
2023-03-05T03:37:14.526Z,62.59
2023-03-05T03:38:14.514Z,62.35
2023-03-05T03:39:14.558Z,62.25
2023-03-05T03:40:14.498Z,62.04
2023-03-05T03:41:14.474Z,62.07
2023-03-05T03:42:14.470Z,62.17
2023-03-05T03:43:14.454Z,62.25
2023-03-05T03:44:14.454Z,61.76
2023-03-05T03:45:14.444Z,62.17
2023-03-05T03:46:14.468Z,61.83
2023-03-05T03:47:14.416Z,61.63
2023-03-05T03:48:14.408Z,61.76
2023-03-05T03:49:14.386Z,61.63
2023-03-05T03:50:14.396Z,61.45
2023-03-05T03:51:14.364Z,61.87
2023-03-05T03:52:14.355Z,61.76
2023-03-05T03:53:14.373Z,61.87
2023-03-05T03:54:14.340Z,61.63
2023-03-05T03:55:14.336Z,61.42
2023-03-05T03:56:14.347Z,61.42
2023-03-05T03:57:14.305Z,61.52
2023-03-05T03:58:14.311Z,61.42
2023-03-05T03:59:14.319Z,61.19
2023-03-05T04:00:14.283Z,61.08
2023-03-05T04:01:14.256Z,61.19
2023-03-05T04:02:14.353Z,61.08
2023-03-05T04:03:14.247Z,61.22
2023-03-05T04:04:14.267Z,61.52
2023-03-05T04:05:14.226Z,61.63
2023-03-05T04:06:14.204Z,61.83
2023-03-05T04:07:14.196Z,61.83
2023-03-05T04:08:14.204Z,62.07
2023-03-05T04:09:14.199Z,62.59
2023-03-05T04:10:14.166Z,62.38
2023-03-05T04:11:14.144Z,62.48
2023-03-05T04:12:14.135Z,62.69
2023-03-05T04:13:14.145Z,62.48
2023-03-05T04:14:14.133Z,62.90
2023-03-05T04:15:14.105Z,62.59
2023-03-05T04:16:14.124Z,62.79
2023-03-05T04:17:14.079Z,62.90
2023-03-05T04:18:14.084Z,63.00
2023-03-05T04:19:14.064Z,62.90
2023-03-05T04:20:14.068Z,62.90
2023-03-05T04:21:14.051Z,62.59
2023-03-05T04:22:14.037Z,61.87
2023-03-05T04:23:14.026Z,61.94
2023-03-05T04:24:23.088Z,61.94
2023-03-05T04:25:14.012Z,61.94
2023-03-05T04:26:13.982Z,61.83
2023-03-05T04:27:13.970Z,61.70
2023-03-05T04:28:13.964Z,61.40
2023-03-05T04:29:13.946Z,61.73
2023-03-05T04:30:13.932Z,61.60
2023-03-05T04:31:14.018Z,61.60
2023-03-05T04:32:13.921Z,61.50
2023-03-05T04:33:13.897Z,61.08
2023-03-05T04:34:13.895Z,61.11
2023-03-05T04:35:13.879Z,61.01
2023-03-05T04:36:13.871Z,61.01
2023-03-05T04:37:13.860Z,60.57
2023-03-05T04:38:13.852Z,60.36
2023-03-05T04:39:13.826Z,60.47
2023-03-05T04:40:13.826Z,60.16
2023-03-05T04:41:13.804Z,60.36
2023-03-05T04:42:13.832Z,60.36
2023-03-05T04:43:13.784Z,60.36
2023-03-05T04:44:13.777Z,60.23
2023-03-05T04:45:13.766Z,60.23
2023-03-05T04:46:13.777Z,60.23
2023-03-05T04:47:13.749Z,60.23
2023-03-05T04:48:13.740Z,60.23
2023-03-05T04:49:13.717Z,60.23
2023-03-05T04:50:13.703Z,60.13
2023-03-05T04:51:13.690Z,59.92
2023-03-05T04:52:13.688Z,59.84
2023-03-05T04:53:13.726Z,59.95
2023-03-05T04:54:13.659Z,60.16
2023-03-05T04:55:13.684Z,60.26
2023-03-05T04:56:13.644Z,60.16
2023-03-05T04:57:13.644Z,59.95
2023-03-05T04:58:13.646Z,59.84
2023-03-05T04:59:13.693Z,59.95
2023-03-05T05:00:13.618Z,59.95
2023-03-05T05:01:13.606Z,59.84
2023-03-05T05:02:13.574Z,59.95
2023-03-05T05:03:13.664Z,59.95
2023-03-05T05:04:13.565Z,60.05
2023-03-05T05:05:13.562Z,60.26
2023-03-05T05:06:13.532Z,60.26
2023-03-05T05:07:13.521Z,60.16
2023-03-05T05:08:13.511Z,60.05
2023-03-05T05:09:13.494Z,59.95
2023-03-05T05:10:13.494Z,60.05
2023-03-05T05:11:13.482Z,60.05
2023-03-05T05:12:13.481Z,60.16
2023-03-05T05:13:13.451Z,60.16
2023-03-05T05:14:13.442Z,60.36
2023-03-05T05:15:13.462Z,60.57
2023-03-05T05:16:13.468Z,60.77
2023-03-05T05:17:13.423Z,60.88
2023-03-05T05:18:13.401Z,60.88
2023-03-05T05:19:13.418Z,60.88
2023-03-05T05:20:13.385Z,60.67
2023-03-05T05:21:13.362Z,60.47
2023-03-05T05:22:13.371Z,60.47
2023-03-05T05:23:13.344Z,60.57
2023-03-05T05:24:13.333Z,60.67
2023-03-05T05:25:13.320Z,60.67
2023-03-05T05:26:13.315Z,60.57
2023-03-05T05:27:13.309Z,60.47
2023-03-05T05:28:13.310Z,60.39
2023-03-05T05:29:13.280Z,60.49
2023-03-05T05:30:13.290Z,60.70
2023-03-05T05:31:13.336Z,60.80
2023-03-05T05:32:13.293Z,60.80
2023-03-05T05:33:13.231Z,60.91
2023-03-05T05:34:13.242Z,60.80
2023-03-05T05:35:13.212Z,60.80
2023-03-05T05:36:13.207Z,60.80
2023-03-05T05:37:13.191Z,60.91
2023-03-05T05:38:13.183Z,60.70
2023-03-05T05:39:13.185Z,60.60
2023-03-05T05:40:13.168Z,60.70
2023-03-05T05:41:13.164Z,60.80
2023-03-05T05:42:13.145Z,60.70
2023-03-05T05:43:13.135Z,60.60
2023-03-05T05:44:13.125Z,60.49
2023-03-05T05:45:13.138Z,60.28
2023-03-05T05:46:13.236Z,60.28
2023-03-05T05:47:13.085Z,60.39
2023-03-05T05:48:13.094Z,60.39
2023-03-05T05:49:13.076Z,61.11
2023-03-05T05:50:13.088Z,61.22
2023-03-05T05:51:13.036Z,61.22
2023-03-05T05:52:13.037Z,61.01
2023-03-05T05:53:13.034Z,60.91
2023-03-05T05:54:13.017Z,60.70
2023-03-05T05:55:13.015Z,60.70
2023-03-05T05:56:13.007Z,60.80
2023-03-05T05:57:12.980Z,60.91
2023-03-05T05:58:12.980Z,61.11
2023-03-05T05:59:12.958Z,61.11
2023-03-05T06:00:12.953Z,61.11
2023-03-05T06:01:12.935Z,61.11
2023-03-05T06:02:12.997Z,61.11
2023-03-05T06:03:12.984Z,61.22
2023-03-05T06:04:12.907Z,61.11
2023-03-05T06:05:12.890Z,61.11
2023-03-05T06:06:12.888Z,61.11
2023-03-05T06:07:12.863Z,61.11
2023-03-05T06:08:12.898Z,61.22
2023-03-05T06:09:12.844Z,61.63
2023-03-05T06:10:12.835Z,61.42
2023-03-05T06:11:12.834Z,61.11
2023-03-05T06:12:12.828Z,60.91
2023-03-05T06:13:12.832Z,60.91
2023-03-05T06:14:12.815Z,61.22
2023-03-05T06:15:12.794Z,61.11
2023-03-05T06:16:12.798Z,61.01
2023-03-05T06:17:14.838Z,61.22
2023-03-05T06:18:12.743Z,61.32
2023-03-05T06:19:12.752Z,61.32
2023-03-05T06:20:12.736Z,60.80
2023-03-05T06:21:12.715Z,60.70
2023-03-05T06:22:12.707Z,60.49
2023-03-05T06:23:12.693Z,60.39
2023-03-05T06:24:12.689Z,60.39
2023-03-05T06:25:12.715Z,60.49
2023-03-05T06:26:12.672Z,60.49
2023-03-05T06:27:12.645Z,60.49
2023-03-05T06:28:12.632Z,60.47
2023-03-05T06:29:12.622Z,60.49
2023-03-05T06:30:12.616Z,60.26
2023-03-05T06:31:12.710Z,60.49
2023-03-05T06:32:12.619Z,60.39
2023-03-05T06:33:12.639Z,60.28
2023-03-05T06:34:12.579Z,60.70
2023-03-05T06:35:12.560Z,60.60
2023-03-05T06:36:12.551Z,60.39
2023-03-05T06:37:12.557Z,60.28
2023-03-05T06:38:12.522Z,60.16
2023-03-05T06:39:12.514Z,60.26
2023-03-05T06:40:12.501Z,60.16
2023-03-05T06:41:12.493Z,60.05
2023-03-05T06:42:12.485Z,60.16
2023-03-05T06:43:12.484Z,60.26
2023-03-05T06:44:12.461Z,60.26
2023-03-05T06:45:12.448Z,60.26
2023-03-05T06:46:12.521Z,60.05
2023-03-05T06:47:12.428Z,59.95
2023-03-05T06:48:12.461Z,59.95
2023-03-05T06:49:12.405Z,60.16
2023-03-05T06:50:12.396Z,60.36
2023-03-05T06:51:12.381Z,60.36
2023-03-05T06:52:12.370Z,60.47
2023-03-05T06:53:12.360Z,60.47
2023-03-05T06:54:12.374Z,60.36
2023-03-05T06:55:12.341Z,60.57
2023-03-05T06:56:12.331Z,60.36
2023-03-05T06:57:12.330Z,60.47
2023-03-05T06:58:12.300Z,60.57
2023-03-05T06:59:12.331Z,60.98
2023-03-05T07:00:12.292Z,60.98
2023-03-05T07:01:12.367Z,61.19
2023-03-05T07:02:12.289Z,61.19
2023-03-05T07:03:12.249Z,61.26
2023-03-05T07:04:12.250Z,61.29
2023-03-05T07:05:12.240Z,61.40
2023-03-05T07:06:12.227Z,61.80
2023-03-05T07:07:12.219Z,62.12
2023-03-05T07:08:12.205Z,62.12
2023-03-05T07:09:12.190Z,62.12
2023-03-05T07:10:12.197Z,61.98
2023-03-05T07:11:12.199Z,61.88
2023-03-05T07:12:12.170Z,62.08
2023-03-05T07:13:12.140Z,62.22
2023-03-05T07:14:12.133Z,62.29
2023-03-05T07:15:12.118Z,62.08
2023-03-05T07:16:12.263Z,62.40
2023-03-05T07:17:12.098Z,62.50
2023-03-05T07:18:12.090Z,62.50
2023-03-05T07:19:12.079Z,62.60
2023-03-05T07:20:12.071Z,62.92
2023-03-05T07:21:12.049Z,62.92
2023-03-05T07:22:12.072Z,62.92
2023-03-05T07:23:12.039Z,62.68
2023-03-05T07:24:12.023Z,62.57
2023-03-05T07:25:12.012Z,62.57
2023-03-05T07:26:11.999Z,62.47
2023-03-05T07:27:11.991Z,62.47
2023-03-05T07:28:11.998Z,62.47
2023-03-05T07:29:11.967Z,62.34
2023-03-05T07:30:11.965Z,62.47
2023-03-05T07:31:11.983Z,62.78
2023-03-05T07:32:11.976Z,63.19
2023-03-05T07:33:11.919Z,63.19
2023-03-05T07:34:11.918Z,63.19
2023-03-05T07:35:11.901Z,63.40
2023-03-05T07:36:11.888Z,63.57
2023-03-05T07:37:11.878Z,63.60
2023-03-05T07:38:11.869Z,63.71
2023-03-05T07:39:11.877Z,64.02
2023-03-05T07:40:11.858Z,63.99
2023-03-05T07:41:11.834Z,63.99
2023-03-05T07:42:11.862Z,64.19
2023-03-05T07:43:11.809Z,64.61
2023-03-05T07:44:11.802Z,64.61
2023-03-05T07:45:11.819Z,65.15
2023-03-05T07:46:11.807Z,65.15
2023-03-05T07:47:11.778Z,65.46
2023-03-05T07:48:11.758Z,65.77
2023-03-05T07:49:11.748Z,65.77
2023-03-05T07:50:11.788Z,65.77
2023-03-05T07:51:11.769Z,65.77
2023-03-05T07:52:11.719Z,65.88
2023-03-05T07:53:11.719Z,66.08
2023-03-05T07:54:11.688Z,66.28
2023-03-05T07:55:11.690Z,66.60
2023-03-05T07:56:11.679Z,66.60
2023-03-05T07:57:11.677Z,66.60
2023-03-05T07:58:11.649Z,66.80
2023-03-05T07:59:11.640Z,66.91
2023-03-05T08:00:11.628Z,66.49
2023-03-05T08:01:13.353Z,67.11
2023-03-05T08:02:11.626Z,67.21
2023-03-05T08:03:11.612Z,67.11
2023-03-05T08:04:11.658Z,67.03
2023-03-05T08:05:11.568Z,67.35
2023-03-05T08:06:11.593Z,67.35
2023-03-05T08:07:11.551Z,67.21
2023-03-05T08:08:11.537Z,66.91
2023-03-05T08:09:11.541Z,66.60
2023-03-05T08:10:11.524Z,66.63
2023-03-05T08:11:11.507Z,66.94
2023-03-05T08:12:11.490Z,67.14
2023-03-05T08:13:11.477Z,67.00
2023-03-05T08:14:11.488Z,66.80
2023-03-05T08:15:11.458Z,66.46
2023-03-05T08:16:11.476Z,65.84
2023-03-05T08:17:11.437Z,66.36
2023-03-05T08:18:11.431Z,66.15
2023-03-05T08:19:11.420Z,65.84
2023-03-05T08:20:11.409Z,65.40
2023-03-05T08:21:11.396Z,65.02
2023-03-05T08:22:11.377Z,65.02
2023-03-05T08:23:11.378Z,65.02
2023-03-05T08:24:11.367Z,64.61
2023-03-05T08:25:11.367Z,64.81
2023-03-05T08:26:11.336Z,64.99
2023-03-05T08:27:11.328Z,64.78
2023-03-05T08:28:11.316Z,64.14
2023-03-05T08:29:11.308Z,63.93
2023-03-05T08:30:11.298Z,63.82
2023-03-05T08:31:11.317Z,63.42
2023-03-05T08:32:11.283Z,63.10
2023-03-05T08:33:11.262Z,62.97
2023-03-05T08:34:11.244Z,62.56
2023-03-05T08:35:11.237Z,62.12
2023-03-05T08:36:11.250Z,61.91
2023-03-05T08:37:11.225Z,61.68
2023-03-05T08:38:11.196Z,61.17
2023-03-05T08:39:11.198Z,61.40
2023-03-05T08:40:11.190Z,61.91
2023-03-05T08:41:11.178Z,61.79
2023-03-05T08:42:11.176Z,61.47
2023-03-05T08:43:11.145Z,60.63
2023-03-05T08:44:11.137Z,60.86
2023-03-05T08:45:11.127Z,60.52
2023-03-05T08:46:11.145Z,60.42
2023-03-05T08:47:11.104Z,60.19
2023-03-05T08:48:11.105Z,59.67
2023-03-05T08:49:11.100Z,59.16
2023-03-05T08:50:11.071Z,59.50
2023-03-05T08:51:11.056Z,59.59
2023-03-05T08:52:11.050Z,59.31
2023-03-05T08:53:11.036Z,59.52
2023-03-05T08:54:11.028Z,59.52
2023-03-05T08:55:11.010Z,59.93
2023-03-05T08:56:10.986Z,59.63
2023-03-05T08:57:10.985Z,59.59
2023-03-05T08:58:10.970Z,59.63
2023-03-05T08:59:12.714Z,59.50
2023-03-05T09:00:10.945Z,59.19
2023-03-05T09:01:10.938Z,59.16
2023-03-05T09:02:10.996Z,59.06
2023-03-05T09:03:10.946Z,58.44
2023-03-05T09:04:10.897Z,58.44
2023-03-05T09:05:10.916Z,58.31
2023-03-05T09:06:10.875Z,57.79
2023-03-05T09:07:10.867Z,57.77
2023-03-05T09:08:10.866Z,57.36
2023-03-05T09:09:10.847Z,56.95
2023-03-05T09:10:10.860Z,57.28
2023-03-05T09:11:10.824Z,57.39
2023-03-05T09:12:12.192Z,57.08
2023-03-05T09:13:10.806Z,57.21
2023-03-05T09:14:10.790Z,57.41
2023-03-05T09:15:10.776Z,57.82
2023-03-05T09:16:10.845Z,57.95
2023-03-05T09:17:10.771Z,58.06
2023-03-05T09:18:10.748Z,58.06
2023-03-05T09:19:10.759Z,58.26
2023-03-05T09:20:10.714Z,58.16
2023-03-05T09:21:10.730Z,58.06
2023-03-05T09:22:10.721Z,57.75
2023-03-05T09:23:10.684Z,57.64
2023-03-05T09:24:10.673Z,57.85
2023-03-05T09:25:10.658Z,57.75
2023-03-05T09:26:10.644Z,58.06
2023-03-05T09:27:10.734Z,57.95
2023-03-05T09:28:10.637Z,57.67
2023-03-05T09:29:10.641Z,58.08
2023-03-05T09:30:10.629Z,58.06
2023-03-05T09:31:10.592Z,58.06
2023-03-05T09:32:10.719Z,57.75
2023-03-05T09:33:10.613Z,57.64
2023-03-05T09:34:10.574Z,57.54
2023-03-05T09:35:10.559Z,57.26
2023-03-05T09:36:10.524Z,57.67
2023-03-05T09:37:10.528Z,58.08
2023-03-05T09:38:10.511Z,58.06
2023-03-05T09:39:10.532Z,57.34
2023-03-05T09:40:10.500Z,57.54
2023-03-05T09:41:10.475Z,57.31
2023-03-05T09:42:10.462Z,57.00
2023-03-05T09:43:10.454Z,56.82
2023-03-05T09:44:10.443Z,57.03
2023-03-05T09:45:10.444Z,57.03
2023-03-05T09:46:10.458Z,57.13
2023-03-05T09:47:10.403Z,56.82
2023-03-05T09:48:10.416Z,56.64
2023-03-05T09:49:10.381Z,57.06
2023-03-05T09:50:10.362Z,56.95
2023-03-05T09:51:10.373Z,56.82
2023-03-05T09:52:10.342Z,57.13
2023-03-05T09:53:10.358Z,56.85
2023-03-05T09:54:10.323Z,57.13
2023-03-05T09:55:10.313Z,56.82
2023-03-05T09:56:10.294Z,56.64
2023-03-05T09:57:10.328Z,56.98
2023-03-05T09:58:10.275Z,57.50
2023-03-05T09:59:10.274Z,57.57
2023-03-05T10:00:10.254Z,57.88
2023-03-05T10:01:10.248Z,57.36
2023-03-05T10:02:10.233Z,57.13
2023-03-05T10:03:10.280Z,56.70
2023-03-05T10:04:10.264Z,56.38
2023-03-05T10:05:10.205Z,56.49
2023-03-05T10:06:10.184Z,56.21
2023-03-05T10:07:10.174Z,56.21
2023-03-05T10:08:10.183Z,56.41
2023-03-05T10:09:10.153Z,56.38
2023-03-05T10:10:10.148Z,56.05
2023-03-05T10:11:10.135Z,55.95
2023-03-05T10:12:10.119Z,56.26
2023-03-05T10:13:10.114Z,56.26
2023-03-05T10:14:10.118Z,56.18
2023-03-05T10:15:10.084Z,56.26
2023-03-05T10:16:10.112Z,56.05
2023-03-05T10:17:10.068Z,56.05
2023-03-05T10:18:10.044Z,56.08
2023-03-05T10:19:10.044Z,56.36
2023-03-05T10:20:10.043Z,56.26
2023-03-05T10:21:10.027Z,56.13
2023-03-05T10:22:10.014Z,55.74
2023-03-05T10:23:09.993Z,55.54
2023-03-05T10:24:09.983Z,55.64
2023-03-05T10:25:09.986Z,55.41
2023-03-05T10:26:09.973Z,55.10
2023-03-05T10:27:10.029Z,54.97
2023-03-05T10:28:09.933Z,54.69
2023-03-05T10:29:09.937Z,55.64
2023-03-05T10:30:09.932Z,55.62
2023-03-05T10:31:09.923Z,55.30
2023-03-05T10:32:10.101Z,55.28
2023-03-05T10:33:16.937Z,54.44
2023-03-05T10:34:09.867Z,54.13
2023-03-05T10:35:09.870Z,53.82
2023-03-05T10:36:09.849Z,53.08
2023-03-05T10:37:09.871Z,53.00
2023-03-05T10:38:09.837Z,53.61
2023-03-05T10:39:09.818Z,53.51
2023-03-05T10:40:09.840Z,53.28
2023-03-05T10:41:09.787Z,53.28
2023-03-05T10:42:09.777Z,53.26
2023-03-05T10:43:09.786Z,53.16
2023-03-05T10:44:09.767Z,52.83
2023-03-05T10:45:09.757Z,52.31
2023-03-05T10:46:09.775Z,52.08
2023-03-05T10:47:09.727Z,51.75
2023-03-05T10:48:09.711Z,51.34
2023-03-05T10:49:09.730Z,51.93
2023-03-05T10:50:09.688Z,51.32
2023-03-05T10:51:09.677Z,51.29
2023-03-05T10:52:09.675Z,50.15
2023-03-05T10:53:09.663Z,50.40
2023-03-05T10:54:09.663Z,50.91
2023-03-05T10:55:09.638Z,51.21
2023-03-05T10:56:09.618Z,51.32
2023-03-05T10:57:09.608Z,50.81
2023-03-05T10:58:09.597Z,50.78
2023-03-05T10:59:09.594Z,50.35
2023-03-05T11:00:09.597Z,49.43
2023-03-05T11:01:09.603Z,49.21
2023-03-05T11:02:09.592Z,48.80
2023-03-05T11:03:09.535Z,49.29
2023-03-05T11:04:09.532Z,48.98
2023-03-05T11:05:09.537Z,48.49
2023-03-05T11:06:09.498Z,47.88
2023-03-05T11:07:09.493Z,48.54
2023-03-05T11:08:09.475Z,48.38
2023-03-05T11:09:09.472Z,49.65
2023-03-05T11:10:09.461Z,50.47
2023-03-05T11:11:09.461Z,50.75
2023-03-05T11:12:09.436Z,50.45
2023-03-05T11:13:09.427Z,50.22
2023-03-05T11:14:09.433Z,49.81
2023-03-05T11:15:09.406Z,49.93
2023-03-05T11:16:09.453Z,50.45
2023-03-05T11:17:09.382Z,51.16
2023-03-05T11:18:09.368Z,51.16
2023-03-05T11:19:09.353Z,50.75
2023-03-05T11:20:09.335Z,51.16
2023-03-05T11:21:09.323Z,51.39
2023-03-05T11:22:09.333Z,51.70
2023-03-05T11:23:09.302Z,51.90
2023-03-05T11:24:09.291Z,52.03
2023-03-05T11:25:09.282Z,52.54
2023-03-05T11:26:09.274Z,52.44
2023-03-05T11:27:09.261Z,52.77
2023-03-05T11:28:09.269Z,53.39
2023-03-05T11:29:09.262Z,53.18
2023-03-05T11:30:09.240Z,53.08
2023-03-05T11:31:09.333Z,53.05
2023-03-05T11:32:09.222Z,53.05
2023-03-05T11:33:10.448Z,53.05
2023-03-05T11:34:09.196Z,52.54
2023-03-05T11:35:09.163Z,52.75
2023-03-05T11:36:09.219Z,53.49
2023-03-05T11:37:09.161Z,53.18
2023-03-05T11:38:09.135Z,53.59
2023-03-05T11:39:09.144Z,53.80
2023-03-05T11:40:09.119Z,53.80
2023-03-05T11:41:09.102Z,53.82
2023-03-05T11:42:09.091Z,54.13
2023-03-05T11:43:09.105Z,54.00
2023-03-05T11:44:09.074Z,53.72
2023-03-05T11:45:09.075Z,53.90
2023-03-05T11:46:09.066Z,53.69
2023-03-05T11:47:09.034Z,53.72
2023-03-05T11:48:09.027Z,54.02
2023-03-05T11:49:09.013Z,54.23
2023-03-05T11:50:08.997Z,54.25
2023-03-05T11:51:09.005Z,54.77
2023-03-05T11:52:08.977Z,55.21
2023-03-05T11:53:09.050Z,55.41
2023-03-05T11:54:08.961Z,55.41
2023-03-05T11:55:08.948Z,55.51
2023-03-05T11:56:08.945Z,55.28
2023-03-05T11:57:09.276Z,55.10
2023-03-05T11:58:08.916Z,55.10
2023-03-05T11:59:08.895Z,54.79
2023-03-05T12:00:08.900Z,54.90
2023-03-05T12:01:08.919Z,55.21
2023-03-05T12:02:08.897Z,55.72
2023-03-05T12:03:09.009Z,55.51
2023-03-05T12:04:08.907Z,55.41
2023-03-05T12:05:08.832Z,55.00
2023-03-05T12:06:08.844Z,55.00
2023-03-05T12:07:09.032Z,54.90
2023-03-05T12:08:08.840Z,55.10
2023-03-05T12:09:08.794Z,55.10
2023-03-05T12:10:08.778Z,54.97
2023-03-05T12:11:08.758Z,55.00
2023-03-05T12:12:08.760Z,54.79
2023-03-05T12:13:08.839Z,54.66
2023-03-05T12:14:08.789Z,54.46
2023-03-05T12:15:08.751Z,54.25
2023-03-05T12:16:08.758Z,54.05
2023-03-05T12:17:08.705Z,53.92
2023-03-05T12:18:08.713Z,53.41
2023-03-05T12:19:08.672Z,53.61
2023-03-05T12:20:08.730Z,53.61
2023-03-05T12:21:08.665Z,53.80
2023-03-05T12:22:08.652Z,53.46
2023-03-05T12:23:08.674Z,52.95
2023-03-05T12:24:08.632Z,52.72
2023-03-05T12:25:08.601Z,52.00
2023-03-05T12:26:08.613Z,52.21
2023-03-05T12:27:08.619Z,52.29
2023-03-05T12:28:08.595Z,51.45
2023-03-05T12:29:08.561Z,50.83
2023-03-05T12:30:08.583Z,50.73
2023-03-05T12:31:08.588Z,50.30
2023-03-05T12:32:08.564Z,50.34
2023-03-05T12:33:08.837Z,50.67
2023-03-05T12:34:08.510Z,50.55
2023-03-05T12:35:08.505Z,50.45
2023-03-05T12:36:08.534Z,50.16
2023-03-05T12:37:08.492Z,50.67
2023-03-05T12:38:25.928Z,50.78
2023-03-05T12:39:09.450Z,50.47
2023-03-05T12:40:08.779Z,50.34
2023-03-05T12:41:08.420Z,50.12
2023-03-05T12:42:08.422Z,50.22
2023-03-05T12:43:08.422Z,49.91
2023-03-05T12:44:08.399Z,49.60
2023-03-05T12:45:08.394Z,49.81
2023-03-05T12:46:08.675Z,50.01
2023-03-05T12:47:08.372Z,50.14
2023-03-05T12:48:08.431Z,49.93
2023-03-05T12:49:08.364Z,50.01
2023-03-05T12:50:08.363Z,49.91
2023-03-05T12:51:08.524Z,49.71
2023-03-05T12:52:08.303Z,49.91